Time;durP1;ratioP1;P1;durP2;ratioP2;P2;SDS_P1;SDS_P2;PMS_P1;PMS_P2;Temp;Humidity;BMP_temperature;BMP_pressure;BME280_temperature;BME280_humidity;BME280_pressure;Samples;Min_cycle;Max_cycle;Signal;HPM_P1;HPM_P2
2023/06/09 00:01:44;;;;;;;4.90;3.95;;;18.10;99.90;;;;;;7387158;19;20139;-78
2023/06/09 00:04:13;;;;;;;6.65;4.60;;;18.10;99.90;;;;;;7382235;19;22117;-78
2023/06/09 00:06:39;;;;;;;6.57;3.95;;;18.10;99.90;;;;;;7380476;19;20122;-78
2023/06/09 00:09:06;;;;;;;4.57;4.05;;;18.10;99.90;;;;;;7388067;19;20131;-78
2023/06/09 00:11:35;;;;;;;4.55;4.15;;;18.10;99.90;;;;;;7383930;19;20367;-78
2023/06/09 00:14:02;;;;;;;4.88;4.38;;;18.10;99.90;;;;;;7384568;19;20191;-79
2023/06/09 00:16:28;;;;;;;4.50;3.90;;;18.10;99.90;;;;;;7389015;19;20145;-78
2023/06/09 00:18:57;;;;;;;4.93;4.10;;;17.70;99.90;;;;;;7387936;19;20143;-78
2023/06/09 00:21:25;;;;;;;4.63;3.97;;;17.10;99.90;;;;;;7387646;19;20131;-78
2023/06/09 00:23:52;;;;;;;4.47;3.55;;;17.10;99.90;;;;;;7384139;19;20143;-79
2023/06/09 00:26:18;;;;;;;5.45;4.30;;;17.10;99.90;;;;;;7386801;19;20138;-80
2023/06/09 00:28:44;;;;;;;6.63;4.05;;;17.00;99.90;;;;;;7386371;19;20202;-79
2023/06/09 00:31:10;;;;;;;5.43;4.45;;;17.30;99.90;;;;;;7387563;19;20154;-79
2023/06/09 00:33:36;;;;;;;6.50;4.78;;;17.60;99.90;;;;;;7385767;19;20282;-79
2023/06/09 00:36:03;;;;;;;5.15;3.92;;;17.80;99.90;;;;;;7386452;19;20981;-80
2023/06/09 00:38:28;;;;;;;5.05;4.10;;;17.60;99.90;;;;;;7385800;19;20475;-79
2023/06/09 00:40:54;;;;;;;7.57;4.10;;;17.50;99.90;;;;;;7384994;19;20148;-80
2023/06/09 00:43:20;;;;;;;5.55;4.13;;;17.30;99.90;;;;;;7390275;19;20626;-79
2023/06/09 00:45:46;;;;;;;7.05;4.20;;;17.40;99.90;;;;;;7392098;19;20131;-79
2023/06/09 00:48:12;;;;;;;4.88;4.22;;;17.60;99.90;;;;;;7389974;19;20591;-79
2023/06/09 00:50:40;;;;;;;5.03;4.45;;;17.70;99.90;;;;;;7389273;19;20157;-78
2023/06/09 00:53:11;;;;;;;5.25;4.32;;;17.80;99.90;;;;;;7391742;19;20148;-78
2023/06/09 00:55:41;;;;;;;4.32;3.90;;;17.90;99.90;;;;;;7391727;19;20131;-78
2023/06/09 00:58:08;;;;;;;5.07;4.13;;;18.00;99.90;;;;;;7391342;19;20147;-78
2023/06/09 01:00:35;;;;;;;4.95;4.05;;;18.00;99.90;;;;;;7392948;19;20149;-78
2023/06/09 01:03:02;;;;;;;7.15;4.07;;;17.90;99.90;;;;;;7389768;19;20151;-79
2023/06/09 01:05:39;;;;;;;4.75;4.25;;;17.60;99.90;;;;;;7389940;19;20146;-78
2023/06/09 01:08:15;;;;;;;7.03;4.28;;;17.60;99.90;;;;;;7392701;19;20131;-78
2023/06/09 01:10:49;;;;;;;5.35;4.47;;;17.70;99.90;;;;;;7391106;19;20146;-79
2023/06/09 01:13:44;;;;;;;5.13;3.90;;;17.60;99.90;;;;;;7393224;19;20213;-79
2023/06/09 01:16:16;;;;;;;6.72;4.10;;;17.10;99.90;;;;;;7391016;19;20151;-79
2023/06/09 01:18:45;;;;;;;4.90;4.30;;;16.60;99.90;;;;;;7391834;19;20134;-78
2023/06/09 01:21:40;;;;;;;4.70;3.97;;;16.90;99.90;;;;;;7391220;19;20545;-79
2023/06/09 01:24:30;;;;;;;6.63;4.15;;;16.90;99.90;;;;;;7390620;19;20133;-78
2023/06/09 01:26:59;;;;;;;4.95;3.70;;;17.00;99.90;;;;;;7391553;19;20138;-79
2023/06/09 01:29:27;;;;;;;4.32;3.90;;;16.90;99.90;;;;;;7393467;19;20139;-79
2023/06/09 01:31:54;;;;;;;5.22;4.18;;;16.90;99.90;;;;;;7390977;19;20139;-80
2023/06/09 01:34:20;;;;;;;5.95;4.50;;;17.10;99.90;;;;;;7392276;19;20135;-78
2023/06/09 01:36:47;;;;;;;6.53;4.68;;;17.30;99.90;;;;;;7388257;19;20142;-78
2023/06/09 01:39:14;;;;;;;5.90;4.70;;;17.60;99.90;;;;;;7391414;19;20598;-80
2023/06/09 01:41:40;;;;;;;7.35;5.25;;;17.60;99.90;;;;;;7389955;19;20474;-79
2023/06/09 01:44:06;;;;;;;6.57;4.60;;;17.70;99.90;;;;;;7388252;19;20240;-79
2023/06/09 01:46:32;;;;;;;5.95;4.78;;;17.50;99.90;;;;;;7392468;19;20168;-79
2023/06/09 01:49:20;;;;;;;5.65;4.43;;;17.30;99.90;;;;;;7393124;19;20130;-78
2023/06/09 01:52:00;;;;;;;5.32;4.40;;;17.50;99.90;;;;;;7392710;19;20224;-78
2023/06/09 01:54:39;;;;;;;5.07;4.30;;;17.50;99.90;;;;;;7391208;19;20138;-80
2023/06/09 01:57:25;;;;;;;4.43;4.03;;;17.60;99.90;;;;;;7387983;19;20135;-79
2023/06/09 01:59:55;;;;;;;5.07;3.88;;;17.60;99.90;;;;;;7389794;19;20126;-78
2023/06/09 02:02:25;;;;;;;4.90;4.15;;;17.60;99.90;;;;;;7389721;19;20138;-78
2023/06/09 02:04:53;;;;;;;4.90;4.40;;;17.70;99.90;;;;;;7390649;19;21189;-80
2023/06/09 02:07:19;;;;;;;4.35;3.95;;;17.70;99.90;;;;;;7390716;19;20499;-80
2023/06/09 02:09:45;;;;;;;4.57;3.90;;;17.70;99.90;;;;;;7390497;19;20131;-79
2023/06/09 02:12:11;;;;;;;5.88;4.88;;;17.60;99.90;;;;;;7391892;19;20134;-79
2023/06/09 02:14:39;;;;;;;5.70;4.60;;;17.60;99.90;;;;;;7388693;19;20155;-80
2023/06/09 02:17:05;;;;;;;5.82;4.40;;;17.40;99.90;;;;;;7389532;19;20142;-78
2023/06/09 02:19:35;;;;;;;5.10;4.30;;;17.30;99.90;;;;;;7389133;19;20250;-79
2023/06/09 02:22:02;;;;;;;5.13;4.43;;;17.20;99.90;;;;;;7391013;19;20468;-80
2023/06/09 02:24:28;;;;;;;4.70;4.28;;;17.10;99.90;;;;;;7390497;19;20131;-78
2023/06/09 02:26:54;;;;;;;4.80;4.28;;;16.80;99.90;;;;;;7389466;19;20127;-78
2023/06/09 02:29:22;;;;;;;6.32;4.70;;;17.00;99.90;;;;;;7388236;19;20142;-79
2023/06/09 02:31:48;;;;;;;6.35;4.88;;;17.20;99.90;;;;;;7387492;19;20313;-80
2023/06/09 02:34:14;;;;;;;6.45;4.82;;;17.30;99.90;;;;;;7391533;19;20724;-79
2023/06/09 02:36:42;;;;;;;5.70;4.57;;;17.30;99.90;;;;;;7389630;19;20467;-79
2023/06/09 02:39:08;;;;;;;6.15;4.57;;;17.30;99.90;;;;;;7390796;19;20163;-79
2023/06/09 02:41:34;;;;;;;5.45;4.80;;;17.20;99.90;;;;;;7390655;19;20135;-79
2023/06/09 02:44:00;;;;;;;6.07;5.00;;;17.20;99.90;;;;;;7385988;19;20143;-78
2023/06/09 02:46:26;;;;;;;5.18;4.68;;;17.00;99.90;;;;;;7388778;19;20237;-79
2023/06/09 02:48:52;;;;;;;6.60;4.78;;;16.80;99.90;;;;;;7389587;19;20156;-79
2023/06/09 02:51:18;;;;;;;8.43;5.53;;;16.80;99.90;;;;;;7391112;19;20146;-80
2023/06/09 02:53:43;;;;;;;5.80;5.05;;;16.80;99.90;;;;;;7388481;19;20571;-78
2023/06/09 02:56:10;;;;;;;4.97;4.47;;;16.40;99.90;;;;;;7389586;19;20150;-78
2023/06/09 02:58:35;;;;;;;6.15;5.10;;;16.50;99.90;;;;;;7389469;19;20146;-79
2023/06/09 03:01:02;;;;;;;6.13;4.90;;;16.70;99.90;;;;;;7388929;19;20157;-79
2023/06/09 03:03:28;;;;;;;6.13;5.10;;;16.80;99.90;;;;;;7386514;19;20159;-79
2023/06/09 03:05:55;;;;;;;6.70;5.45;;;16.80;99.90;;;;;;7388799;19;20151;-78
2023/06/09 03:08:20;;;;;;;6.30;5.20;;;17.10;99.90;;;;;;7386426;19;20158;-78
2023/06/09 03:10:46;;;;;;;6.63;5.30;;;16.70;99.90;;;;;;7390217;19;20146;-78
2023/06/09 03:13:12;;;;;;;6.43;4.97;;;16.50;99.90;;;;;;7393718;19;20135;-80
2023/06/09 03:15:40;;;;;;;6.57;5.57;;;16.20;99.90;;;;;;7390135;19;20150;-79
2023/06/09 03:18:07;;;;;;;5.57;4.97;;;16.20;99.90;;;;;;7388412;19;20190;-80
2023/06/09 03:20:36;;;;;;;7.82;5.60;;;16.20;99.90;;;;;;7390074;19;20241;-79
2023/06/09 03:23:02;;;;;;;6.75;5.35;;;16.20;99.90;;;;;;7387170;19;20158;-79
2023/06/09 03:25:30;;;;;;;6.15;5.55;;;16.40;99.90;;;;;;7392858;19;20152;-78
2023/06/09 03:27:56;;;;;;;8.55;5.13;;;16.60;99.90;;;;;;7391719;19;20587;-79
2023/06/09 03:30:22;;;;;;;6.35;4.72;;;16.90;99.90;;;;;;7391535;19;20142;-79
2023/06/09 03:32:48;;;;;;;6.05;5.28;;;16.30;99.90;;;;;;7393636;19;20178;-80
2023/06/09 03:35:15;;;;;;;6.47;5.43;;;16.10;99.90;;;;;;7393626;19;20134;-79
2023/06/09 03:37:42;;;;;;;6.65;5.53;;;16.50;99.90;;;;;;7391676;19;20590;-79
2023/06/09 03:40:09;;;;;;;7.47;5.28;;;16.60;99.90;;;;;;7393981;19;20510;-80
2023/06/09 03:42:35;;;;;;;5.18;4.65;;;16.40;99.90;;;;;;7389450;19;20162;-80
2023/06/09 03:45:01;;;;;;;6.40;4.57;;;16.20;99.90;;;;;;7396398;19;20155;-80
2023/06/09 03:47:26;;;;;;;9.30;4.78;;;16.40;99.90;;;;;;7397313;19;20222;-80
2023/06/09 03:49:52;;;;;;;5.75;4.95;;;16.60;99.90;;;;;;7395066;19;20157;-81
2023/06/09 03:52:19;;;;;;;6.22;4.28;;;16.70;99.90;;;;;;7399019;19;20149;-81
2023/06/09 03:54:45;;;;;;;5.07;4.57;;;16.50;99.90;;;;;;7397545;19;20153;-79
2023/06/09 03:57:11;;;;;;;5.57;4.75;;;16.20;99.90;;;;;;7399896;19;20150;-79
2023/06/09 03:59:37;;;;;;;5.93;4.35;;;16.30;99.90;;;;;;7391577;19;20138;-81
2023/06/09 04:02:02;;;;;;;5.35;4.60;;;16.10;99.90;;;;;;7391404;19;20262;-80
2023/06/09 04:04:28;;;;;;;6.07;5.30;;;15.90;99.90;;;;;;7387510;19;20198;-82
2023/06/09 04:06:56;;;;;;;6.78;4.80;;;16.20;99.90;;;;;;7389536;19;20142;-80
2023/06/09 04:09:22;;;;;;;10.20;8.35;;;16.40;99.90;;;;;;7390432;19;20213;-79
2023/06/09 04:11:48;;;;;;;6.93;5.43;;;16.60;99.90;;;;;;7385228;19;20169;-79
2023/06/09 04:14:14;;;;;;;9.50;5.80;;;16.70;99.90;;;;;;7387391;19;20154;-80
2023/06/09 04:16:39;;;;;;;7.70;5.80;;;16.90;99.90;;;;;;7387104;19;20139;-79
2023/06/09 04:19:06;;;;;;;7.00;5.25;;;17.10;99.90;;;;;;7386980;19;20156;-80
2023/06/09 04:21:33;;;;;;;5.82;5.20;;;16.80;99.90;;;;;;7384864;19;20666;-80
2023/06/09 04:23:58;;;;;;;7.72;5.68;;;16.70;99.90;;;;;;7385232;19;20131;-81
2023/06/09 04:26:25;;;;;;;8.45;5.57;;;16.80;99.90;;;;;;7387761;19;20147;-79
2023/06/09 04:28:53;;;;;;;6.38;5.30;;;16.90;99.90;;;;;;7389136;19;20134;-80
2023/06/09 04:31:23;;;;;;;6.85;4.88;;;17.00;99.90;;;;;;7383912;19;20170;-79
2023/06/09 04:33:51;;;;;;;5.72;5.13;;;17.00;99.90;;;;;;7384321;19;20164;-80
2023/06/09 04:36:17;;;;;;;6.18;4.40;;;17.00;99.90;;;;;;7386519;19;20141;-80
2023/06/09 04:38:45;;;;;;;5.47;4.75;;;17.00;99.90;;;;;;7383888;19;20179;-80
2023/06/09 04:41:11;;;;;;;6.90;5.10;;;17.00;99.90;;;;;;7385811;19;20158;-81
2023/06/09 04:43:39;;;;;;;5.95;4.63;;;17.10;99.90;;;;;;7382352;19;20146;-79
2023/06/09 04:46:08;;;;;;;5.57;4.45;;;17.30;99.90;;;;;;7388200;19;20521;-80
2023/06/09 04:48:34;;;;;;;4.88;4.40;;;17.20;99.90;;;;;;7386250;19;20836;-80
2023/06/09 04:51:03;;;;;;;5.07;4.55;;;17.30;99.90;;;;;;7384795;19;20498;-80
2023/06/09 04:53:29;;;;;;;6.22;4.82;;;17.40;99.90;;;;;;7383197;19;20222;-79
2023/06/09 04:55:56;;;;;;;6.07;5.22;;;17.30;99.90;;;;;;7385989;19;20169;-79
2023/06/09 04:58:23;;;;;;;7.43;5.20;;;17.20;99.90;;;;;;7386259;19;20226;-80
2023/06/09 05:00:50;;;;;;;6.43;5.40;;;17.20;99.90;;;;;;7381036;19;20586;-81
2023/06/09 05:03:17;;;;;;;6.60;5.20;;;17.30;99.90;;;;;;7379979;19;20152;-82
2023/06/09 05:05:46;;;;;;;8.02;5.50;;;17.30;99.90;;;;;;7384586;19;20131;-82
2023/06/09 05:08:12;;;;;;;6.45;5.75;;;17.40;99.90;;;;;;7382219;19;20487;-82
2023/06/09 05:10:37;;;;;;;6.80;6.07;;;17.50;99.90;;;;;;7381319;19;20151;-82
2023/06/09 05:13:04;;;;;;;5.85;5.25;;;17.20;99.90;;;;;;7387739;19;20142;-83
2023/06/09 05:15:30;;;;;;;7.80;6.43;;;17.40;99.90;;;;;;7390384;19;20147;-81
2023/06/09 05:17:57;;;;;;;8.68;5.55;;;17.40;99.90;;;;;;7388798;19;20158;-82
2023/06/09 05:20:23;;;;;;;6.15;5.55;;;17.60;99.90;;;;;;7389140;19;20138;-81
2023/06/09 05:22:49;;;;;;;6.70;6.00;;;17.60;99.90;;;;;;7394482;19;20155;-81
2023/06/09 05:25:16;;;;;;;6.93;6.22;;;17.40;99.90;;;;;;7384599;19;20157;-82
2023/06/09 05:27:41;;;;;;;6.93;6.18;;;17.60;99.90;;;;;;7383704;19;20196;-81
2023/06/09 05:30:07;;;;;;;9.18;6.22;;;17.60;99.90;;;;;;7393282;19;20146;-82
2023/06/09 05:32:33;;;;;;;8.65;6.50;;;17.70;99.90;;;;;;7389372;19;20154;-79
2023/06/09 05:35:00;;;;;;;9.48;6.70;;;17.90;99.90;;;;;;7393972;19;20145;-80
2023/06/09 05:37:26;;;;;;;7.10;6.38;;;17.80;99.90;;;;;;7390189;19;20135;-79
2023/06/09 05:39:53;;;;;;;10.93;7.15;;;17.80;99.90;;;;;;7391298;19;20464;-80
2023/06/09 05:42:19;;;;;;;8.27;7.38;;;17.70;99.90;;;;;;7388541;19;20158;-78
2023/06/09 05:44:44;;;;;;;8.70;6.90;;;17.80;99.90;;;;;;7388775;19;20145;-79
2023/06/09 05:47:10;;;;;;;11.00;7.95;;;17.90;99.90;;;;;;7387624;19;20158;-79
2023/06/09 05:49:36;;;;;;;8.38;7.55;;;17.90;99.90;;;;;;7391014;19;20714;-79
2023/06/09 05:52:02;;;;;;;8.80;7.70;;;17.90;99.90;;;;;;7389177;19;20450;-81
2023/06/09 05:54:28;;;;;;;8.60;7.63;;;17.90;99.90;;;;;;7389868;19;20848;-79
2023/06/09 05:56:54;;;;;;;8.50;7.60;;;17.90;99.90;;;;;;7391152;19;20221;-81
2023/06/09 05:59:23;;;;;;;8.65;7.57;;;18.00;99.90;;;;;;7392560;19;20551;-80
2023/06/09 06:01:49;;;;;;;9.68;8.23;;;18.00;99.90;;;;;;7390296;19;20131;-81
2023/06/09 06:04:16;;;;;;;10.13;7.82;;;18.10;99.90;;;;;;7386428;19;20147;-81
2023/06/09 06:06:42;;;;;;;9.48;7.93;;;18.10;99.90;;;;;;7390021;19;20139;-81
2023/06/09 06:09:08;;;;;;;10.32;7.93;;;18.20;99.90;;;;;;7389142;19;20134;-80
2023/06/09 06:11:38;;;;;;;8.80;7.88;;;18.50;99.90;;;;;;7388603;19;20152;-81
2023/06/09 06:14:04;;;;;;;8.38;7.57;;;19.80;99.90;;;;;;7388691;19;20176;-81
2023/06/09 06:16:30;;;;;;;9.73;7.78;;;21.30;99.90;;;;;;7390061;19;20598;-82
2023/06/09 06:18:55;;;;;;;9.73;7.78;;;21.60;99.90;;;;;;7390215;19;20161;-81
2023/06/09 06:21:21;;;;;;;9.55;8.05;;;21.60;99.90;;;;;;7389055;19;20591;-81
2023/06/09 06:23:47;;;;;;;9.35;8.43;;;22.80;99.90;;;;;;7389168;19;20138;-81
2023/06/09 06:26:12;;;;;;;12.02;7.78;;;24.10;99.90;;;;;;7388713;19;20157;-82
2023/06/09 06:28:38;;;;;;;11.02;7.75;;;25.30;99.90;;;;;;7394855;19;20276;-81
2023/06/09 06:31:04;;;;;;;9.73;7.55;;;26.10;99.90;;;;;;7388429;19;20134;-82
2023/06/09 06:33:31;;;;;;;8.52;7.65;;;26.80;99.90;;;;;;7390349;19;20147;-81
2023/06/09 06:35:58;;;;;;;11.60;6.88;;;27.30;99.90;;;;;;7388923;19;20138;-81
2023/06/09 06:38:23;;;;;;;8.68;7.00;;;28.10;99.90;;;;;;7390031;19;20135;-82
2023/06/09 06:40:50;;;;;;;8.15;7.35;;;28.50;99.90;;;;;;7385603;19;20173;-82
2023/06/09 06:43:15;;;;;;;8.55;7.60;;;28.90;99.90;;;;;;7386252;19;20151;-82
2023/06/09 06:45:41;;;;;;;9.80;7.75;;;29.10;99.90;;;;;;7389783;19;20448;-82
2023/06/09 06:48:07;;;;;;;10.05;7.25;;;28.60;99.90;;;;;;7384616;19;20214;-80
2023/06/09 06:50:33;;;;;;;8.32;7.40;;;28.30;99.90;;;;;;7387484;19;20872;-82
2023/06/09 06:52:59;;;;;;;10.73;6.95;;;28.60;99.90;;;;;;7387679;19;20138;-83
2023/06/09 06:55:24;;;;;;;7.88;6.70;;;28.40;99.90;;;;;;7391042;19;20145;-83
2023/06/09 06:57:52;;;;;;;6.80;6.15;;;28.10;99.90;;;;;;7387908;19;20127;-82
2023/06/09 07:00:20;;;;;;;8.00;6.53;;;27.90;99.90;;;;;;7388079;19;20191;-83
2023/06/09 07:02:47;;;;;;;11.00;6.25;;;27.50;99.90;;;;;;7385853;19;20150;-82
2023/06/09 07:05:14;;;;;;;7.40;6.55;;;26.80;99.90;;;;;;7391257;19;20165;-82
2023/06/09 07:07:39;;;;;;;6.32;5.72;;;26.50;99.90;;;;;;7392249;19;20150;-82
2023/06/09 07:10:08;;;;;;;6.88;5.80;;;26.50;99.90;;;;;;7390336;19;20187;-82
2023/06/09 07:12:34;;;;;;;5.68;5.18;;;26.50;99.90;;;;;;7389930;19;20158;-83
2023/06/09 07:15:00;;;;;;;5.90;5.30;;;26.70;99.90;;;;;;7391032;19;20611;-83
2023/06/09 07:17:26;;;;;;;6.32;4.88;;;27.00;99.90;;;;;;7390260;19;20198;-83
2023/06/09 07:19:51;;;;;;;7.07;5.00;;;27.20;99.90;;;;;;7387342;19;20147;-80
2023/06/09 07:22:17;;;;;;;5.65;5.05;;;27.60;99.90;;;;;;7388733;19;21660;-83
2023/06/09 07:24:47;;;;;;;9.13;5.35;;;27.70;99.90;;;;;;7386199;19;20151;-80
2023/06/09 07:27:13;;;;;;;5.10;4.60;;;27.50;99.90;;;;;;7387824;19;20131;-79
2023/06/09 07:29:41;;;;;;;7.40;5.13;;;26.90;99.90;;;;;;7387654;19;20134;-78
2023/06/09 07:32:08;;;;;;;7.82;5.50;;;26.50;99.90;;;;;;7389967;19;20149;-80
2023/06/09 07:34:35;;;;;;;5.90;4.85;;;26.30;99.90;;;;;;7388049;19;20139;-78
2023/06/09 07:37:04;;;;;;;5.55;3.97;;;26.10;99.90;;;;;;7387998;19;20442;-79
2023/06/09 07:39:30;;;;;;;7.15;4.90;;;26.20;99.90;;;;;;7388432;19;20163;-80
2023/06/09 07:41:59;;;;;;;6.72;5.60;;;26.00;99.90;;;;;;7390526;19;20143;-81
2023/06/09 07:44:25;;;;;;;7.25;4.43;;;26.10;99.90;;;;;;7387198;19;20122;-80
2023/06/09 07:46:51;;;;;;;5.70;5.13;;;26.10;99.90;;;;;;7388644;19;20156;-79
2023/06/09 07:49:17;;;;;;;5.05;4.55;;;26.00;99.90;;;;;;7394790;19;20186;-80
2023/06/09 07:51:52;;;;;;;5.70;4.65;;;25.90;99.90;;;;;;7387942;19;20138;-80
2023/06/09 07:54:18;;;;;;;4.97;4.47;;;25.80;99.90;;;;;;7388792;19;20244;-80
2023/06/09 07:56:48;;;;;;;5.40;4.60;;;25.70;99.90;;;;;;7386483;19;20173;-80
2023/06/09 07:59:18;;;;;;;4.85;4.35;;;25.90;99.90;;;;;;7389521;19;20157;-79
2023/06/09 08:01:44;;;;;;;4.03;3.63;;;26.20;99.90;;;;;;7385577;19;20657;-81
2023/06/09 08:04:10;;;;;;;4.15;3.65;;;26.00;99.90;;;;;;7386898;19;20138;-77
2023/06/09 08:06:36;;;;;;;4.43;3.38;;;25.90;99.90;;;;;;7388265;19;20575;-79
2023/06/09 08:09:01;;;;;;;4.10;3.67;;;26.00;99.90;;;;;;7394914;19;20148;-79
2023/06/09 08:11:27;;;;;;;4.40;4.00;;;26.10;99.90;;;;;;7393695;19;20547;-80
2023/06/09 08:13:53;;;;;;;5.55;4.43;;;26.10;99.90;;;;;;7394096;19;20162;-79
2023/06/09 08:16:19;;;;;;;4.72;4.03;;;26.20;99.90;;;;;;7392984;19;20138;-80
2023/06/09 08:18:44;;;;;;;3.72;3.35;;;26.00;99.90;;;;;;7393446;19;20135;-80
2023/06/09 08:21:11;;;;;;;4.25;3.60;;;26.30;99.90;;;;;;7393151;19;20126;-79
2023/06/09 08:23:41;;;;;;;4.03;3.63;;;26.80;99.90;;;;;;7386902;19;20143;-80
2023/06/09 08:26:07;;;;;;;3.80;3.50;;;26.90;99.90;;;;;;7387529;19;20147;-81
2023/06/09 08:28:48;;;;;;;3.67;3.33;;;27.10;99.90;;;;;;7388237;19;20153;-80
2023/06/09 08:31:14;;;;;;;3.88;3.20;;;27.20;99.90;;;;;;7389858;19;20769;-80
2023/06/09 08:33:40;;;;;;;4.35;3.25;;;27.00;99.90;;;;;;7392691;19;20130;-81
2023/06/09 08:36:07;;;;;;;3.60;3.15;;;27.00;99.90;;;;;;7393445;19;20153;-79
2023/06/09 08:38:34;;;;;;;3.28;2.97;;;27.00;99.90;;;;;;7392272;19;20595;-80
2023/06/09 08:41:09;;;;;;;3.03;2.72;;;27.10;99.90;;;;;;7387490;19;20462;-81
2023/06/09 08:43:41;;;;;;;3.42;2.78;;;26.90;99.90;;;;;;7389068;19;20142;-82
2023/06/09 08:46:10;;;;;;;2.85;2.58;;;26.80;99.90;;;;;;7376500;19;20141;-81
2023/06/09 08:48:41;;;;;;;3.85;3.00;;;26.60;99.90;;;;;;7390080;19;20147;-81
2023/06/09 08:51:10;;;;;;;5.93;2.95;;;26.50;99.90;;;;;;7392848;19;20159;-84
2023/06/09 08:53:39;;;;;;;3.40;2.95;;;26.50;99.90;;;;;;7384517;19;20178;-83
2023/06/09 08:56:05;;;;;;;2.45;2.25;;;26.40;99.90;;;;;;7391600;19;20170;-82
2023/06/09 08:58:31;;;;;;;3.83;2.13;;;26.10;99.90;;;;;;7396215;19;20142;-83
2023/06/09 09:00:57;;;;;;;4.65;2.50;;;26.00;99.90;;;;;;7395068;19;20178;-82
2023/06/09 09:03:23;;;;;;;2.75;2.53;;;26.10;99.90;;;;;;7392024;19;20135;-82
2023/06/09 09:05:49;;;;;;;4.13;3.72;;;26.20;99.90;;;;;;7389786;19;20150;-78
2023/06/09 09:08:14;;;;;;;3.65;2.95;;;26.10;99.90;;;;;;7395079;19;20618;-84
2023/06/09 09:10:41;;;;;;;5.65;2.70;;;26.10;99.90;;;;;;7395485;19;20143;-85
2023/06/09 09:13:09;;;;;;;3.00;2.70;;;26.10;99.90;;;;;;7395523;19;20174;-84
2023/06/09 09:15:37;;;;;;;3.40;3.03;;;26.10;99.90;;;;;;7396102;19;20202;-83
2023/06/09 09:18:07;;;;;;;3.38;2.70;;;25.90;99.90;;;;;;7395226;19;20154;-84
2023/06/09 09:20:34;;;;;;;2.33;2.13;;;25.80;99.90;;;;;;7393995;19;20158;-82
2023/06/09 09:23:02;;;;;;;4.38;3.33;;;26.10;99.90;;;;;;7393785;19;20150;-85
2023/06/09 09:25:30;;;;;;;2.85;2.58;;;26.20;99.90;;;;;;7397018;19;20150;-85
2023/06/09 09:28:13;;;;;;;4.13;2.65;;;26.00;99.90;;;;;;7393719;19;20143;-78
2023/06/09 09:30:54;;;;;;;2.97;2.67;;;25.90;99.90;;;;;;7394783;19;20134;-84
2023/06/09 09:33:27;;;;;;;3.03;2.35;;;25.80;99.90;;;;;;7389772;19;20158;-84
2023/06/09 09:35:55;;;;;;;2.80;2.45;;;25.80;99.90;;;;;;7392011;19;20176;-81
2023/06/09 09:38:26;;;;;;;4.20;3.13;;;25.90;99.90;;;;;;7394027;19;20482;-82
2023/06/09 09:40:53;;;;;;;3.45;2.65;;;25.70;99.90;;;;;;7394122;19;20250;-84
2023/06/09 09:43:21;;;;;;;3.05;2.70;;;25.80;99.90;;;;;;7388340;19;20181;-81
2023/06/09 09:45:50;;;;;;;2.88;2.58;;;25.80;99.90;;;;;;7394268;19;20153;-84
2023/06/09 09:48:19;;;;;;;4.20;3.75;;;25.90;99.90;;;;;;7390844;19;20218;-81
2023/06/09 09:50:46;;;;;;;4.28;3.88;;;25.90;99.90;;;;;;7391966;19;20158;-83
2023/06/09 09:53:12;;;;;;;4.00;3.13;;;25.70;99.90;;;;;;7390881;19;20151;-82
2023/06/09 09:55:44;;;;;;;3.75;2.53;;;25.50;99.90;;;;;;7392011;19;20155;-81
2023/06/09 09:58:11;;;;;;;2.78;2.58;;;25.50;99.90;;;;;;7391899;19;20154;-80
2023/06/09 10:00:40;;;;;;;3.45;2.33;;;25.60;99.90;;;;;;7392561;19;20142;-82
2023/06/09 10:03:17;;;;;;;3.65;3.33;;;26.00;99.90;;;;;;7390892;19;20138;-82
2023/06/09 10:05:47;;;;;;;2.83;2.25;;;26.10;99.90;;;;;;7392261;19;20463;-81
2023/06/09 10:08:22;;;;;;;3.55;2.97;;;26.20;99.90;;;;;;7393088;19;20146;-82
2023/06/09 10:10:50;;;;;;;2.97;2.58;;;26.30;99.90;;;;;;7392402;19;20491;-82
2023/06/09 10:13:16;;;;;;;3.60;2.47;;;26.30;99.90;;;;;;7391621;19;20142;-79
2023/06/09 10:15:43;;;;;;;2.40;2.20;;;26.30;99.90;;;;;;7391175;19;20142;-80
2023/06/09 10:18:11;;;;;;;2.53;2.03;;;26.20;99.90;;;;;;7390198;19;20135;-82
2023/06/09 10:20:36;;;;;;;2.83;2.50;;;26.30;99.90;;;;;;7391727;19;20634;-84
2023/06/09 10:23:04;;;;;;;2.40;1.50;;;26.00;99.70;;;;;;7391357;19;20152;-81
2023/06/09 10:25:30;;;;;;;1.90;1.45;;;26.00;99.40;;;;;;7396163;19;20131;-82
2023/06/09 10:27:56;;;;;;;1.70;1.60;;;26.10;97.30;;;;;;7395343;19;20160;-80
2023/06/09 10:30:24;;;;;;;2.00;1.80;;;26.20;97.10;;;;;;7392636;19;20143;-82
2023/06/09 10:32:57;;;;;;;2.20;1.90;;;26.20;97.10;;;;;;7394906;19;20522;-80
2023/06/09 10:35:31;;;;;;;1.88;1.77;;;26.30;96.10;;;;;;7394331;19;20131;-82
2023/06/09 10:37:58;;;;;;;1.63;1.52;;;26.30;96.40;;;;;;7395814;19;20131;-82
2023/06/09 10:40:26;;;;;;;2.35;2.15;;;26.30;96.70;;;;;;7394021;19;20131;-81
2023/06/09 10:43:10;;;;;;;2.08;1.80;;;26.40;96.10;;;;;;7391789;19;20218;-81
2023/06/09 10:45:52;;;;;;;2.30;1.85;;;26.60;95.50;;;;;;7401205;19;20138;-88
2023/06/09 10:48:45;;;;;;;2.03;1.75;;;26.60;94.50;;;;;;7398929;19;20147;-84
2023/06/09 10:51:29;;;;;;;2.05;1.85;;;26.50;95.20;;;;;;7407533;19;20234;-85
2023/06/09 10:54:20;;;;;;;2.10;1.90;;;26.60;94.40;;;;;;7409670;19;20134;-83
2023/06/09 10:56:54;;;;;;;3.20;2.25;;;26.50;95.00;;;;;;7403763;19;20158;-82
2023/06/09 10:59:26;;;;;;;2.45;1.80;;;26.60;95.60;;;;;;7397231;19;20553;-82
2023/06/09 11:02:04;;;;;;;3.35;1.55;;;26.80;95.50;;;;;;7400504;19;21335;-85
2023/06/09 11:04:44;;;;;;;2.03;1.63;;;26.80;95.20;;;;;;7400818;19;20136;-82
2023/06/09 11:07:25;;;;;;;2.40;1.65;;;26.80;95.50;;;;;;7401319;19;20217;-82
2023/06/09 11:09:51;;;;;;;2.38;1.88;;;26.80;95.80;;;;;;7397941;19;20158;-82
2023/06/09 11:12:29;;;;;;;2.00;1.80;;;27.00;95.20;;;;;;7397997;19;20131;-82
2023/06/09 11:14:59;;;;;;;1.88;1.70;;;27.00;94.60;;;;;;7389785;19;20205;-81
2023/06/09 11:17:33;;;;;;;1.90;1.67;;;26.80;94.90;;;;;;7393512;19;20133;-82
2023/06/09 11:22:58;;;;;;;2.50;2.30;;;26.80;95.00;;;;;;7389007;19;20155;-84
2023/06/09 11:25:26;;;;;;;2.30;1.83;;;26.80;94.80;;;;;;7388331;19;20172;-81
2023/06/09 11:27:54;;;;;;;2.08;1.88;;;26.80;95.10;;;;;;7390086;19;20131;-84
2023/06/09 11:30:22;;;;;;;2.20;2.00;;;26.90;94.80;;;;;;7388720;19;20169;-83
2023/06/09 11:32:58;;;;;;;3.17;2.17;;;26.90;95.20;;;;;;7392115;19;20462;-83
2023/06/09 11:35:30;;;;;;;2.95;2.67;;;26.90;95.40;;;;;;7391347;19;20127;-83
2023/06/09 11:38:01;;;;;;;2.53;2.33;;;27.10;95.10;;;;;;7388958;19;20150;-81
2023/06/09 11:40:30;;;;;;;2.15;1.95;;;27.10;95.20;;;;;;7391324;19;20139;-81
2023/06/09 11:42:57;;;;;;;2.40;2.20;;;27.20;94.30;;;;;;7388797;19;20159;-81
2023/06/09 11:45:26;;;;;;;2.92;2.08;;;27.30;94.20;;;;;;7390281;19;20130;-81
2023/06/09 11:47:56;;;;;;;2.00;1.67;;;27.30;94.40;;;;;;7388706;19;20181;-83
2023/06/09 11:50:24;;;;;;;2.00;1.80;;;27.40;94.10;;;;;;7389316;19;20155;-81
2023/06/09 11:53:05;;;;;;;2.38;1.88;;;27.30;94.60;;;;;;7389527;19;20143;-84
2023/06/09 11:55:31;;;;;;;2.80;2.15;;;27.20;95.20;;;;;;7389037;19;20146;-84
2023/06/09 11:57:58;;;;;;;2.75;2.40;;;27.30;95.30;;;;;;7389020;19;20150;-82
2023/06/09 12:00:29;;;;;;;2.53;2.33;;;27.40;95.80;;;;;;7389212;19;20126;-82
2023/06/09 12:02:59;;;;;;;2.28;2.08;;;27.40;96.20;;;;;;7388081;19;20134;-82
2023/06/09 12:05:32;;;;;;;2.20;2.00;;;27.30;96.50;;;;;;7387916;19;20135;-85
2023/06/09 12:08:01;;;;;;;2.50;2.05;;;27.10;96.40;;;;;;7387864;19;20504;-82
2023/06/09 12:10:30;;;;;;;2.33;2.13;;;26.90;96.70;;;;;;7388952;19;20131;-81
2023/06/09 12:12:58;;;;;;;2.20;2.00;;;27.00;96.40;;;;;;7389433;19;20139;-83
2023/06/09 12:15:26;;;;;;;2.15;1.95;;;27.00;96.30;;;;;;7391051;19;20146;-82
2023/06/09 12:17:57;;;;;;;2.50;2.10;;;27.00;96.00;;;;;;7387102;19;20562;-84
2023/06/09 12:20:27;;;;;;;2.15;1.95;;;27.00;96.30;;;;;;7389954;19;20142;-83
2023/06/09 12:22:57;;;;;;;2.38;2.17;;;27.10;96.30;;;;;;7386371;19;20675;-81
2023/06/09 12:25:38;;;;;;;2.05;1.85;;;27.10;96.60;;;;;;7388805;19;20134;-82
2023/06/09 12:28:23;;;;;;;3.92;2.17;;;27.20;95.90;;;;;;7387545;19;20146;-80
2023/06/09 12:30:51;;;;;;;2.38;1.90;;;27.10;95.70;;;;;;7385202;19;20162;-83
2023/06/09 12:33:17;;;;;;;2.47;2.08;;;26.80;96.60;;;;;;7390490;19;20210;-84
2023/06/09 12:35:54;;;;;;;2.50;2.25;;;26.80;96.20;;;;;;7385730;19;20149;-81
2023/06/09 12:38:28;;;;;;;2.95;2.50;;;26.80;96.10;;;;;;7393909;19;20179;-82
2023/06/09 12:40:56;;;;;;;2.15;1.95;;;26.90;96.10;;;;;;7392822;19;20131;-83
2023/06/09 12:43:23;;;;;;;2.50;2.30;;;27.10;95.90;;;;;;7394074;19;20161;-83
2023/06/09 12:45:56;;;;;;;2.70;2.00;;;27.30;94.90;;;;;;7392548;19;20146;-82
2023/06/09 12:48:22;;;;;;;1.73;1.63;;;27.40;94.60;;;;;;7390689;19;20138;-82
2023/06/09 12:50:48;;;;;;;2.22;2.03;;;27.60;94.40;;;;;;7391481;19;20150;-84
2023/06/09 12:53:15;;;;;;;3.10;2.13;;;27.70;93.70;;;;;;7393474;19;20545;-83
2023/06/09 12:55:42;;;;;;;2.67;2.42;;;27.60;94.00;;;;;;7394551;19;20139;-82